sensor_id;sensor_type;location;lat;lon;timestamp;P1;durP1;ratioP1;P2;durP2;ratioP2
20203;SDS011;10261;49.010;12.034;2022-10-19T00:00:49;12.82;;;5.15;;
20203;SDS011;10261;49.010;12.034;2022-10-19T00:01:52;7.80;;;4.38;;
20203;SDS011;10261;49.010;12.034;2022-10-19T00:02:56;9.35;;;4.90;;
20203;SDS011;10261;49.010;12.034;2022-10-19T00:03:59;5.72;;;4.38;;
20203;SDS011;10261;49.010;12.034;2022-10-19T00:05:06;6.35;;;4.63;;
20203;SDS011;10261;49.010;12.034;2022-10-19T00:06:11;5.22;;;4.57;;
20203;SDS011;10261;49.010;12.034;2022-10-19T00:07:15;9.98;;;4.18;;
20203;SDS011;10261;49.010;12.034;2022-10-19T00:08:17;8.43;;;5.13;;
20203;SDS011;10261;49.010;12.034;2022-10-19T00:09:19;7.57;;;4.53;;
20203;SDS011;10261;49.010;12.034;2022-10-19T00:10:22;6.78;;;4.88;;
20203;SDS011;10261;49.010;12.034;2022-10-19T00:11:24;7.30;;;4.72;;
20203;SDS011;10261;49.010;12.034;2022-10-19T00:12:28;5.38;;;4.30;;
20203;SDS011;10261;49.010;12.034;2022-10-19T00:13:30;5.70;;;5.03;;
20203;SDS011;10261;49.010;12.034;2022-10-19T00:14:33;7.90;;;4.60;;
20203;SDS011;10261;49.010;12.034;2022-10-19T00:15:37;7.30;;;5.60;;
20203;SDS011;10261;49.010;12.034;2022-10-19T00:16:41;4.30;;;3.90;;
20203;SDS011;10261;49.010;12.034;2022-10-19T00:17:44;10.95;;;5.07;;
20203;SDS011;10261;49.010;12.034;2022-10-19T00:18:48;6.15;;;4.85;;
20203;SDS011;10261;49.010;12.034;2022-10-19T00:19:50;9.50;;;6.03;;
20203;SDS011;10261;49.010;12.034;2022-10-19T00:21:00;8.77;;;5.35;;
20203;SDS011;10261;49.010;12.034;2022-10-19T00:22:03;14.90;;;4.97;;
20203;SDS011;10261;49.010;12.034;2022-10-19T00:23:10;5.22;;;4.18;;
20203;SDS011;10261;49.010;12.034;2022-10-19T00:24:12;6.13;;;4.10;;
20203;SDS011;10261;49.010;12.034;2022-10-19T00:25:15;4.60;;;3.72;;
20203;SDS011;10261;49.010;12.034;2022-10-19T00:26:17;5.25;;;4.70;;
20203;SDS011;10261;49.010;12.034;2022-10-19T00:27:20;5.57;;;4.32;;
20203;SDS011;10261;49.010;12.034;2022-10-19T00:28:22;6.63;;;4.05;;
20203;SDS011;10261;49.010;12.034;2022-10-19T00:29:25;4.75;;;3.80;;
20203;SDS011;10261;49.010;12.034;2022-10-19T00:30:27;8.88;;;4.40;;
20203;SDS011;10261;49.010;12.034;2022-10-19T00:31:30;4.75;;;4.20;;
20203;SDS011;10261;49.010;12.034;2022-10-19T00:32:32;6.68;;;3.63;;
20203;SDS011;10261;49.010;12.034;2022-10-19T00:33:35;4.97;;;4.25;;
20203;SDS011;10261;49.010;12.034;2022-10-19T00:34:39;5.70;;;4.55;;
20203;SDS011;10261;49.010;12.034;2022-10-19T00:35:42;6.95;;;4.65;;
20203;SDS011;10261;49.010;12.034;2022-10-19T00:36:44;8.98;;;4.03;;
20203;SDS011;10261;49.010;12.034;2022-10-19T00:37:47;4.45;;;4.03;;
20203;SDS011;10261;49.010;12.034;2022-10-19T00:38:49;7.43;;;5.05;;
20203;SDS011;10261;49.010;12.034;2022-10-19T00:39:53;5.32;;;4.82;;
20203;SDS011;10261;49.010;12.034;2022-10-19T00:40:55;6.07;;;4.78;;
20203;SDS011;10261;49.010;12.034;2022-10-19T00:41:58;6.25;;;5.15;;
20203;SDS011;10261;49.010;12.034;2022-10-19T00:43:00;15.43;;;5.38;;
20203;SDS011;10261;49.010;12.034;2022-10-19T00:44:04;6.28;;;5.10;;
20203;SDS011;10261;49.010;12.034;2022-10-19T00:45:11;7.70;;;4.97;;
20203;SDS011;10261;49.010;12.034;2022-10-19T00:46:16;4.93;;;4.53;;
20203;SDS011;10261;49.010;12.034;2022-10-19T00:47:18;5.90;;;5.15;;
20203;SDS011;10261;49.010;12.034;2022-10-19T00:48:26;10.38;;;5.55;;
20203;SDS011;10261;49.010;12.034;2022-10-19T00:49:33;6.22;;;5.63;;
20203;SDS011;10261;49.010;12.034;2022-10-19T00:50:40;7.07;;;4.78;;
20203;SDS011;10261;49.010;12.034;2022-10-19T00:51:49;10.48;;;5.72;;
20203;SDS011;10261;49.010;12.034;2022-10-19T00:52:53;5.93;;;4.80;;
20203;SDS011;10261;49.010;12.034;2022-10-19T00:53:56;9.13;;;5.68;;
20203;SDS011;10261;49.010;12.034;2022-10-19T00:54:59;13.18;;;6.10;;
20203;SDS011;10261;49.010;12.034;2022-10-19T00:56:04;8.48;;;5.97;;
20203;SDS011;10261;49.010;12.034;2022-10-19T00:57:11;7.85;;;5.72;;
20203;SDS011;10261;49.010;12.034;2022-10-19T00:58:15;8.85;;;5.55;;
20203;SDS011;10261;49.010;12.034;2022-10-19T00:59:17;6.55;;;5.95;;
20203;SDS011;10261;49.010;12.034;2022-10-19T01:00:22;7.53;;;5.38;;
20203;SDS011;10261;49.010;12.034;2022-10-19T01:01:24;7.53;;;5.60;;
20203;SDS011;10261;49.010;12.034;2022-10-19T01:02:28;6.32;;;4.68;;
20203;SDS011;10261;49.010;12.034;2022-10-19T01:03:31;7.15;;;5.68;;
20203;SDS011;10261;49.010;12.034;2022-10-19T01:04:35;11.35;;;5.00;;
20203;SDS011;10261;49.010;12.034;2022-10-19T01:05:40;5.10;;;4.60;;
20203;SDS011;10261;49.010;12.034;2022-10-19T01:06:43;5.40;;;4.85;;
20203;SDS011;10261;49.010;12.034;2022-10-19T01:07:45;5.70;;;4.85;;
20203;SDS011;10261;49.010;12.034;2022-10-19T01:08:48;5.65;;;5.15;;
20203;SDS011;10261;49.010;12.034;2022-10-19T01:09:50;6.07;;;5.03;;
20203;SDS011;10261;49.010;12.034;2022-10-19T01:10:56;5.75;;;4.93;;
20203;SDS011;10261;49.010;12.034;2022-10-19T01:12:17;5.60;;;4.35;;
20203;SDS011;10261;49.010;12.034;2022-10-19T01:13:33;5.13;;;4.47;;
20203;SDS011;10261;49.010;12.034;2022-10-19T01:14:49;5.40;;;4.90;;
20203;SDS011;10261;49.010;12.034;2022-10-19T01:16:05;7.55;;;4.78;;
20203;SDS011;10261;49.010;12.034;2022-10-19T01:17:16;4.90;;;3.95;;
20203;SDS011;10261;49.010;12.034;2022-10-19T01:18:25;5.53;;;4.50;;
20203;SDS011;10261;49.010;12.034;2022-10-19T01:19:50;5.38;;;4.85;;
20203;SDS011;10261;49.010;12.034;2022-10-19T01:21:10;7.40;;;4.68;;
20203;SDS011;10261;49.010;12.034;2022-10-19T01:22:25;5.78;;;4.75;;
20203;SDS011;10261;49.010;12.034;2022-10-19T01:23:54;5.82;;;5.22;;
20203;SDS011;10261;49.010;12.034;2022-10-19T01:25:20;5.75;;;4.65;;
20203;SDS011;10261;49.010;12.034;2022-10-19T01:26:28;5.20;;;4.70;;
20203;SDS011;10261;49.010;12.034;2022-10-19T01:27:51;7.10;;;5.07;;
20203;SDS011;10261;49.010;12.034;2022-10-19T01:29:02;9.77;;;5.80;;
20203;SDS011;10261;49.010;12.034;2022-10-19T01:30:15;7.07;;;5.88;;
20203;SDS011;10261;49.010;12.034;2022-10-19T01:31:28;9.02;;;5.90;;
20203;SDS011;10261;49.010;12.034;2022-10-19T01:34:24;7.22;;;6.53;;
20203;SDS011;10261;49.010;12.034;2022-10-19T01:35:31;8.57;;;6.63;;
20203;SDS011;10261;49.010;12.034;2022-10-19T01:36:40;7.53;;;6.15;;
20203;SDS011;10261;49.010;12.034;2022-10-19T01:37:49;8.27;;;6.78;;
20203;SDS011;10261;49.010;12.034;2022-10-19T01:39:00;8.13;;;5.95;;
20203;SDS011;10261;49.010;12.034;2022-10-19T01:40:09;5.55;;;4.80;;
20203;SDS011;10261;49.010;12.034;2022-10-19T01:41:16;4.22;;;3.85;;
20203;SDS011;10261;49.010;12.034;2022-10-19T01:42:23;5.20;;;4.70;;
20203;SDS011;10261;49.010;12.034;2022-10-19T01:43:32;5.47;;;4.90;;
20203;SDS011;10261;49.010;12.034;2022-10-19T01:44:41;5.35;;;4.85;;
20203;SDS011;10261;49.010;12.034;2022-10-19T01:45:49;5.13;;;4.65;;
20203;SDS011;10261;49.010;12.034;2022-10-19T01:46:55;5.93;;;5.22;;
20203;SDS011;10261;49.010;12.034;2022-10-19T01:48:04;4.65;;;4.25;;
20203;SDS011;10261;49.010;12.034;2022-10-19T01:49:12;4.15;;;3.75;;
20203;SDS011;10261;49.010;12.034;2022-10-19T01:50:20;9.38;;;5.85;;
20203;SDS011;10261;49.010;12.034;2022-10-19T01:51:29;4.53;;;4.13;;
20203;SDS011;10261;49.010;12.034;2022-10-19T01:52:36;6.63;;;4.25;;
20203;SDS011;10261;49.010;12.034;2022-10-19T01:53:40;6.15;;;5.20;;
20203;SDS011;10261;49.010;12.034;2022-10-19T01:54:48;7.00;;;6.05;;
20203;SDS011;10261;49.010;12.034;2022-10-19T01:55:56;10.50;;;6.30;;
20203;SDS011;10261;49.010;12.034;2022-10-19T01:57:03;10.38;;;6.03;;
20203;SDS011;10261;49.010;12.034;2022-10-19T01:58:08;6.20;;;5.55;;
20203;SDS011;10261;49.010;12.034;2022-10-19T01:59:16;7.90;;;6.15;;
20203;SDS011;10261;49.010;12.034;2022-10-19T02:00:20;8.75;;;6.40;;
20203;SDS011;10261;49.010;12.034;2022-10-19T02:01:26;7.35;;;6.50;;
20203;SDS011;10261;49.010;12.034;2022-10-19T02:02:33;11.23;;;7.00;;
20203;SDS011;10261;49.010;12.034;2022-10-19T02:03:39;7.88;;;6.85;;
20203;SDS011;10261;49.010;12.034;2022-10-19T02:04:41;9.30;;;6.70;;
20203;SDS011;10261;49.010;12.034;2022-10-19T02:05:45;7.15;;;5.82;;
20203;SDS011;10261;49.010;12.034;2022-10-19T02:06:48;5.38;;;4.75;;
20203;SDS011;10261;49.010;12.034;2022-10-19T02:07:53;4.50;;;4.10;;
20203;SDS011;10261;49.010;12.034;2022-10-19T02:08:59;7.40;;;5.93;;
20203;SDS011;10261;49.010;12.034;2022-10-19T02:10:02;10.90;;;7.32;;
20203;SDS011;10261;49.010;12.034;2022-10-19T02:11:05;9.57;;;6.40;;
20203;SDS011;10261;49.010;12.034;2022-10-19T02:12:08;10.32;;;7.35;;
20203;SDS011;10261;49.010;12.034;2022-10-19T02:13:11;8.75;;;6.82;;
20203;SDS011;10261;49.010;12.034;2022-10-19T02:14:16;10.68;;;6.88;;
20203;SDS011;10261;49.010;12.034;2022-10-19T02:15:22;10.38;;;7.63;;
20203;SDS011;10261;49.010;12.034;2022-10-19T02:16:30;10.10;;;7.38;;
20203;SDS011;10261;49.010;12.034;2022-10-19T02:17:36;7.32;;;5.38;;
20203;SDS011;10261;49.010;12.034;2022-10-19T02:18:44;11.25;;;7.00;;
20203;SDS011;10261;49.010;12.034;2022-10-19T02:19:49;9.88;;;6.22;;
20203;SDS011;10261;49.010;12.034;2022-10-19T02:20:53;7.72;;;5.00;;
20203;SDS011;10261;49.010;12.034;2022-10-19T02:21:55;11.88;;;7.60;;
20203;SDS011;10261;49.010;12.034;2022-10-19T02:22:59;12.18;;;7.90;;
20203;SDS011;10261;49.010;12.034;2022-10-19T02:24:04;10.18;;;7.60;;
20203;SDS011;10261;49.010;12.034;2022-10-19T02:25:07;8.10;;;6.00;;
20203;SDS011;10261;49.010;12.034;2022-10-19T02:26:10;11.23;;;6.70;;
20203;SDS011;10261;49.010;12.034;2022-10-19T02:27:13;9.38;;;7.18;;
20203;SDS011;10261;49.010;12.034;2022-10-19T02:28:15;8.70;;;6.50;;
20203;SDS011;10261;49.010;12.034;2022-10-19T02:29:18;13.95;;;7.75;;
20203;SDS011;10261;49.010;12.034;2022-10-19T02:30:20;8.43;;;6.45;;
20203;SDS011;10261;49.010;12.034;2022-10-19T02:31:23;10.07;;;7.15;;
20203;SDS011;10261;49.010;12.034;2022-10-19T02:32:27;9.68;;;6.95;;
20203;SDS011;10261;49.010;12.034;2022-10-19T02:33:30;10.50;;;7.60;;
20203;SDS011;10261;49.010;12.034;2022-10-19T02:34:32;12.32;;;8.10;;
20203;SDS011;10261;49.010;12.034;2022-10-19T02:35:37;9.80;;;7.63;;
20203;SDS011;10261;49.010;12.034;2022-10-19T02:36:39;10.55;;;7.35;;
20203;SDS011;10261;49.010;12.034;2022-10-19T02:37:43;13.65;;;8.13;;
20203;SDS011;10261;49.010;12.034;2022-10-19T02:38:45;12.70;;;8.18;;
20203;SDS011;10261;49.010;12.034;2022-10-19T02:39:48;12.30;;;9.10;;
20203;SDS011;10261;49.010;12.034;2022-10-19T02:40:53;10.98;;;7.13;;
20203;SDS011;10261;49.010;12.034;2022-10-19T02:42:04;9.18;;;6.63;;
20203;SDS011;10261;49.010;12.034;2022-10-19T02:43:13;14.02;;;8.93;;
20203;SDS011;10261;49.010;12.034;2022-10-19T02:44:20;9.93;;;7.35;;
20203;SDS011;10261;49.010;12.034;2022-10-19T02:45:26;7.95;;;6.07;;
20203;SDS011;10261;49.010;12.034;2022-10-19T02:46:31;7.85;;;5.43;;
20203;SDS011;10261;49.010;12.034;2022-10-19T02:47:42;7.75;;;5.32;;
20203;SDS011;10261;49.010;12.034;2022-10-19T02:48:48;13.63;;;7.82;;
20203;SDS011;10261;49.010;12.034;2022-10-19T02:49:53;9.18;;;6.53;;
20203;SDS011;10261;49.010;12.034;2022-10-19T02:50:55;13.25;;;7.53;;
20203;SDS011;10261;49.010;12.034;2022-10-19T02:51:58;12.15;;;8.05;;
20203;SDS011;10261;49.010;12.034;2022-10-19T02:53:01;12.52;;;8.43;;
20203;SDS011;10261;49.010;12.034;2022-10-19T02:54:05;15.93;;;8.02;;
20203;SDS011;10261;49.010;12.034;2022-10-19T02:55:08;10.77;;;6.28;;
20203;SDS011;10261;49.010;12.034;2022-10-19T02:56:11;10.73;;;7.80;;
20203;SDS011;10261;49.010;12.034;2022-10-19T02:57:14;14.85;;;7.70;;
20203;SDS011;10261;49.010;12.034;2022-10-19T02:58:18;7.30;;;5.05;;
20203;SDS011;10261;49.010;12.034;2022-10-19T02:59:20;7.30;;;5.60;;
20203;SDS011;10261;49.010;12.034;2022-10-19T03:00:23;8.60;;;6.70;;
20203;SDS011;10261;49.010;12.034;2022-10-19T03:01:25;7.53;;;5.15;;
20203;SDS011;10261;49.010;12.034;2022-10-19T03:02:28;11.75;;;7.55;;
20203;SDS011;10261;49.010;12.034;2022-10-19T03:03:32;8.23;;;6.22;;
20203;SDS011;10261;49.010;12.034;2022-10-19T03:04:35;10.20;;;7.80;;
20203;SDS011;10261;49.010;12.034;2022-10-19T03:05:37;8.63;;;6.32;;
20203;SDS011;10261;49.010;12.034;2022-10-19T03:06:40;11.45;;;7.57;;
20203;SDS011;10261;49.010;12.034;2022-10-19T03:07:42;9.57;;;7.53;;
20203;SDS011;10261;49.010;12.034;2022-10-19T03:08:45;23.77;;;8.10;;
20203;SDS011;10261;49.010;12.034;2022-10-19T03:09:47;12.88;;;7.60;;
20203;SDS011;10261;49.010;12.034;2022-10-19T03:10:50;9.48;;;6.18;;
20203;SDS011;10261;49.010;12.034;2022-10-19T03:11:53;12.05;;;6.65;;
20203;SDS011;10261;49.010;12.034;2022-10-19T03:12:57;9.70;;;7.15;;
20203;SDS011;10261;49.010;12.034;2022-10-19T03:13:59;9.20;;;7.00;;
20203;SDS011;10261;49.010;12.034;2022-10-19T03:15:02;7.38;;;5.30;;
20203;SDS011;10261;49.010;12.034;2022-10-19T03:16:06;12.07;;;7.13;;
20203;SDS011;10261;49.010;12.034;2022-10-19T03:17:09;9.05;;;6.57;;
20203;SDS011;10261;49.010;12.034;2022-10-19T03:18:11;9.90;;;6.53;;
20203;SDS011;10261;49.010;12.034;2022-10-19T03:19:16;9.77;;;6.35;;
20203;SDS011;10261;49.010;12.034;2022-10-19T03:20:17;7.97;;;5.85;;
20203;SDS011;10261;49.010;12.034;2022-10-19T03:21:20;7.68;;;6.00;;
20203;SDS011;10261;49.010;12.034;2022-10-19T03:22:23;7.90;;;5.70;;
20203;SDS011;10261;49.010;12.034;2022-10-19T03:23:25;9.45;;;7.15;;
20203;SDS011;10261;49.010;12.034;2022-10-19T03:24:28;8.35;;;5.82;;
20203;SDS011;10261;49.010;12.034;2022-10-19T03:25:31;9.18;;;5.88;;
20203;SDS011;10261;49.010;12.034;2022-10-19T03:26:33;11.10;;;7.35;;
20203;SDS011;10261;49.010;12.034;2022-10-19T03:27:36;9.18;;;6.18;;
20203;SDS011;10261;49.010;12.034;2022-10-19T03:28:38;11.15;;;6.65;;
20203;SDS011;10261;49.010;12.034;2022-10-19T03:29:41;9.80;;;7.35;;
20203;SDS011;10261;49.010;12.034;2022-10-19T03:30:43;9.57;;;7.20;;
20203;SDS011;10261;49.010;12.034;2022-10-19T03:31:46;9.32;;;6.00;;
20203;SDS011;10261;49.010;12.034;2022-10-19T03:32:48;10.55;;;7.47;;
20203;SDS011;10261;49.010;12.034;2022-10-19T03:33:51;9.45;;;6.55;;
20203;SDS011;10261;49.010;12.034;2022-10-19T03:34:55;8.82;;;6.63;;
20203;SDS011;10261;49.010;12.034;2022-10-19T03:36:18;9.15;;;6.22;;
20203;SDS011;10261;49.010;12.034;2022-10-19T03:37:23;9.77;;;7.72;;
20203;SDS011;10261;49.010;12.034;2022-10-19T03:38:25;10.73;;;6.72;;
20203;SDS011;10261;49.010;12.034;2022-10-19T03:39:28;12.27;;;6.80;;
20203;SDS011;10261;49.010;12.034;2022-10-19T03:40:30;10.55;;;6.85;;
20203;SDS011;10261;49.010;12.034;2022-10-19T03:41:34;8.90;;;7.22;;
20203;SDS011;10261;49.010;12.034;2022-10-19T03:42:37;9.50;;;5.90;;
20203;SDS011;10261;49.010;12.034;2022-10-19T03:43:39;8.45;;;5.93;;
20203;SDS011;10261;49.010;12.034;2022-10-19T03:44:41;8.85;;;6.60;;
20203;SDS011;10261;49.010;12.034;2022-10-19T03:45:44;7.85;;;5.78;;
20203;SDS011;10261;49.010;12.034;2022-10-19T03:46:46;10.38;;;6.13;;
20203;SDS011;10261;49.010;12.034;2022-10-19T03:47:49;9.35;;;6.40;;
20203;SDS011;10261;49.010;12.034;2022-10-19T03:48:52;11.57;;;6.18;;
20203;SDS011;10261;49.010;12.034;2022-10-19T03:49:56;11.30;;;7.07;;
20203;SDS011;10261;49.010;12.034;2022-10-19T03:50:59;9.30;;;6.55;;
20203;SDS011;10261;49.010;12.034;2022-10-19T03:52:02;10.20;;;7.32;;
20203;SDS011;10261;49.010;12.034;2022-10-19T03:53:06;7.53;;;6.00;;
20203;SDS011;10261;49.010;12.034;2022-10-19T03:54:10;9.90;;;6.60;;
20203;SDS011;10261;49.010;12.034;2022-10-19T03:55:15;10.30;;;7.65;;
20203;SDS011;10261;49.010;12.034;2022-10-19T03:56:18;12.15;;;7.28;;
20203;SDS011;10261;49.010;12.034;2022-10-19T03:57:23;9.05;;;6.32;;
20203;SDS011;10261;49.010;12.034;2022-10-19T03:58:26;13.55;;;7.00;;
20203;SDS011;10261;49.010;12.034;2022-10-19T03:59:28;9.68;;;6.15;;
20203;SDS011;10261;49.010;12.034;2022-10-19T04:00:31;12.13;;;6.75;;
20203;SDS011;10261;49.010;12.034;2022-10-19T04:01:34;10.15;;;6.68;;
20203;SDS011;10261;49.010;12.034;2022-10-19T04:02:38;10.88;;;6.22;;
20203;SDS011;10261;49.010;12.034;2022-10-19T04:03:40;8.35;;;5.82;;
20203;SDS011;10261;49.010;12.034;2022-10-19T04:04:43;10.27;;;6.57;;
20203;SDS011;10261;49.010;12.034;2022-10-19T04:05:47;10.77;;;7.50;;
20203;SDS011;10261;49.010;12.034;2022-10-19T04:06:50;10.65;;;6.32;;
20203;SDS011;10261;49.010;12.034;2022-10-19T04:07:53;9.25;;;6.35;;
20203;SDS011;10261;49.010;12.034;2022-10-19T04:08:57;9.50;;;6.80;;
20203;SDS011;10261;49.010;12.034;2022-10-19T04:09:59;11.13;;;7.70;;
20203;SDS011;10261;49.010;12.034;2022-10-19T04:11:03;11.32;;;6.85;;
20203;SDS011;10261;49.010;12.034;2022-10-19T04:12:06;11.07;;;7.20;;
20203;SDS011;10261;49.010;12.034;2022-10-19T04:13:09;10.57;;;6.85;;
20203;SDS011;10261;49.010;12.034;2022-10-19T04:14:12;10.77;;;6.30;;
20203;SDS011;10261;49.010;12.034;2022-10-19T04:15:32;10.68;;;6.18;;
20203;SDS011;10261;49.010;12.034;2022-10-19T04:16:35;9.52;;;7.10;;
20203;SDS011;10261;49.010;12.034;2022-10-19T04:17:38;9.55;;;6.45;;
20203;SDS011;10261;49.010;12.034;2022-10-19T04:18:41;10.30;;;6.82;;
20203;SDS011;10261;49.010;12.034;2022-10-19T04:19:44;10.77;;;7.68;;
20203;SDS011;10261;49.010;12.034;2022-10-19T04:20:47;13.02;;;7.57;;
20203;SDS011;10261;49.010;12.034;2022-10-19T04:21:50;9.00;;;6.35;;
20203;SDS011;10261;49.010;12.034;2022-10-19T04:22:53;10.57;;;6.95;;
20203;SDS011;10261;49.010;12.034;2022-10-19T04:23:56;9.60;;;6.32;;
20203;SDS011;10261;49.010;12.034;2022-10-19T04:25:01;9.20;;;6.15;;
20203;SDS011;10261;49.010;12.034;2022-10-19T04:26:03;13.82;;;6.20;;
20203;SDS011;10261;49.010;12.034;2022-10-19T04:27:08;9.25;;;6.60;;
20203;SDS011;10261;49.010;12.034;2022-10-19T04:28:10;8.20;;;6.13;;
20203;SDS011;10261;49.010;12.034;2022-10-19T04:29:13;10.38;;;6.13;;
20203;SDS011;10261;49.010;12.034;2022-10-19T04:30:15;8.35;;;6.38;;
20203;SDS011;10261;49.010;12.034;2022-10-19T04:31:18;10.35;;;6.65;;
20203;SDS011;10261;49.010;12.034;2022-10-19T04:32:20;8.98;;;6.10;;
20203;SDS011;10261;49.010;12.034;2022-10-19T04:33:23;9.43;;;6.75;;
20203;SDS011;10261;49.010;12.034;2022-10-19T04:34:25;9.93;;;6.57;;
20203;SDS011;10261;49.010;12.034;2022-10-19T04:35:28;8.85;;;5.85;;
20203;SDS011;10261;49.010;12.034;2022-10-19T04:36:32;7.93;;;5.47;;
20203;SDS011;10261;49.010;12.034;2022-10-19T04:37:35;11.20;;;6.72;;
20203;SDS011;10261;49.010;12.034;2022-10-19T04:38:37;16.00;;;7.93;;
20203;SDS011;10261;49.010;12.034;2022-10-19T04:39:40;8.30;;;6.25;;
20203;SDS011;10261;49.010;12.034;2022-10-19T04:40:43;10.63;;;7.20;;
20203;SDS011;10261;49.010;12.034;2022-10-19T04:41:46;10.77;;;6.97;;
20203;SDS011;10261;49.010;12.034;2022-10-19T04:42:49;12.18;;;5.63;;
20203;SDS011;10261;49.010;12.034;2022-10-19T04:43:53;9.93;;;6.75;;
20203;SDS011;10261;49.010;12.034;2022-10-19T04:44:57;10.02;;;6.10;;
20203;SDS011;10261;49.010;12.034;2022-10-19T04:46:01;11.60;;;6.10;;
20203;SDS011;10261;49.010;12.034;2022-10-19T04:47:04;10.32;;;6.18;;
20203;SDS011;10261;49.010;12.034;2022-10-19T04:48:07;8.55;;;5.97;;
20203;SDS011;10261;49.010;12.034;2022-10-19T04:49:09;10.45;;;5.95;;
20203;SDS011;10261;49.010;12.034;2022-10-19T04:50:18;10.02;;;5.97;;
20203;SDS011;10261;49.010;12.034;2022-10-19T04:51:20;8.35;;;6.28;;
20203;SDS011;10261;49.010;12.034;2022-10-19T04:52:25;9.10;;;6.32;;
20203;SDS011;10261;49.010;12.034;2022-10-19T04:53:28;9.38;;;5.50;;
20203;SDS011;10261;49.010;12.034;2022-10-19T04:54:31;8.90;;;6.53;;
20203;SDS011;10261;49.010;12.034;2022-10-19T04:55:34;9.07;;;5.68;;
20203;SDS011;10261;49.010;12.034;2022-10-19T04:56:41;8.57;;;5.75;;
20203;SDS011;10261;49.010;12.034;2022-10-19T04:57:43;7.63;;;5.32;;
20203;SDS011;10261;49.010;12.034;2022-10-19T04:58:45;11.13;;;6.63;;
20203;SDS011;10261;49.010;12.034;2022-10-19T04:59:49;8.30;;;6.22;;
20203;SDS011;10261;49.010;12.034;2022-10-19T05:00:51;9.18;;;6.65;;
20203;SDS011;10261;49.010;12.034;2022-10-19T05:01:54;13.27;;;5.63;;
20203;SDS011;10261;49.010;12.034;2022-10-19T05:02:57;7.50;;;5.25;;
20203;SDS011;10261;49.010;12.034;2022-10-19T05:03:59;10.55;;;5.80;;
20203;SDS011;10261;49.010;12.034;2022-10-19T05:05:03;9.77;;;6.28;;
20203;SDS011;10261;49.010;12.034;2022-10-19T05:06:06;8.25;;;5.75;;
20203;SDS011;10261;49.010;12.034;2022-10-19T05:07:10;7.30;;;5.97;;
20203;SDS011;10261;49.010;12.034;2022-10-19T05:08:13;10.30;;;6.45;;
20203;SDS011;10261;49.010;12.034;2022-10-19T05:09:16;9.32;;;6.22;;
20203;SDS011;10261;49.010;12.034;2022-10-19T05:10:18;9.32;;;6.13;;
20203;SDS011;10261;49.010;12.034;2022-10-19T05:11:21;8.43;;;5.88;;
20203;SDS011;10261;49.010;12.034;2022-10-19T05:12:24;10.13;;;6.07;;
20203;SDS011;10261;49.010;12.034;2022-10-19T05:13:26;7.85;;;5.65;;
20203;SDS011;10261;49.010;12.034;2022-10-19T05:14:31;6.50;;;5.13;;
20203;SDS011;10261;49.010;12.034;2022-10-19T05:15:39;9.23;;;5.80;;
20203;SDS011;10261;49.010;12.034;2022-10-19T05:16:41;8.60;;;5.95;;
20203;SDS011;10261;49.010;12.034;2022-10-19T05:17:44;8.68;;;5.88;;
20203;SDS011;10261;49.010;12.034;2022-10-19T05:18:46;9.90;;;5.68;;
20203;SDS011;10261;49.010;12.034;2022-10-19T05:19:50;9.00;;;6.22;;
20203;SDS011;10261;49.010;12.034;2022-10-19T05:20:58;7.22;;;5.97;;
20203;SDS011;10261;49.010;12.034;2022-10-19T05:22:02;8.50;;;5.50;;
20203;SDS011;10261;49.010;12.034;2022-10-19T05:24:29;9.60;;;6.40;;
20203;SDS011;10261;49.010;12.034;2022-10-19T05:25:32;8.98;;;5.90;;
20203;SDS011;10261;49.010;12.034;2022-10-19T05:26:34;8.88;;;5.93;;
20203;SDS011;10261;49.010;12.034;2022-10-19T05:27:37;10.60;;;5.70;;
20203;SDS011;10261;49.010;12.034;2022-10-19T05:28:39;9.40;;;6.22;;
20203;SDS011;10261;49.010;12.034;2022-10-19T05:29:42;8.85;;;5.25;;
20203;SDS011;10261;49.010;12.034;2022-10-19T05:30:44;11.50;;;4.85;;
20203;SDS011;10261;49.010;12.034;2022-10-19T05:31:49;9.95;;;6.18;;
20203;SDS011;10261;49.010;12.034;2022-10-19T05:32:52;8.25;;;5.38;;
20203;SDS011;10261;49.010;12.034;2022-10-19T05:33:54;8.95;;;5.53;;
20203;SDS011;10261;49.010;12.034;2022-10-19T05:34:57;12.27;;;6.40;;
20203;SDS011;10261;49.010;12.034;2022-10-19T05:35:59;10.63;;;5.78;;
20203;SDS011;10261;49.010;12.034;2022-10-19T05:37:11;8.38;;;5.55;;
20203;SDS011;10261;49.010;12.034;2022-10-19T05:38:13;9.60;;;6.55;;
20203;SDS011;10261;49.010;12.034;2022-10-19T05:39:18;10.10;;;6.05;;
20203;SDS011;10261;49.010;12.034;2022-10-19T05:40:21;11.45;;;6.60;;
20203;SDS011;10261;49.010;12.034;2022-10-19T05:41:23;8.52;;;5.93;;
20203;SDS011;10261;49.010;12.034;2022-10-19T05:42:27;7.43;;;5.68;;
20203;SDS011;10261;49.010;12.034;2022-10-19T05:43:30;8.50;;;5.38;;
20203;SDS011;10261;49.010;12.034;2022-10-19T05:44:32;8.93;;;5.43;;
20203;SDS011;10261;49.010;12.034;2022-10-19T05:45:36;16.85;;;7.88;;
20203;SDS011;10261;49.010;12.034;2022-10-19T05:46:38;12.48;;;6.63;;
20203;SDS011;10261;49.010;12.034;2022-10-19T05:47:41;8.38;;;5.68;;
20203;SDS011;10261;49.010;12.034;2022-10-19T05:48:43;10.60;;;6.60;;
20203;SDS011;10261;49.010;12.034;2022-10-19T05:49:46;9.20;;;6.60;;
20203;SDS011;10261;49.010;12.034;2022-10-19T05:50:51;10.57;;;6.82;;
20203;SDS011;10261;49.010;12.034;2022-10-19T05:51:54;13.32;;;6.57;;
20203;SDS011;10261;49.010;12.034;2022-10-19T05:52:57;10.63;;;6.63;;
20203;SDS011;10261;49.010;12.034;2022-10-19T05:53:59;14.50;;;6.80;;
20203;SDS011;10261;49.010;12.034;2022-10-19T05:55:04;11.32;;;6.95;;
20203;SDS011;10261;49.010;12.034;2022-10-19T05:56:08;10.30;;;6.35;;
20203;SDS011;10261;49.010;12.034;2022-10-19T05:57:14;11.77;;;6.63;;
20203;SDS011;10261;49.010;12.034;2022-10-19T05:58:17;9.75;;;6.75;;
20203;SDS011;10261;49.010;12.034;2022-10-19T05:59:19;12.05;;;6.57;;
20203;SDS011;10261;49.010;12.034;2022-10-19T06:00:22;10.48;;;6.30;;
20203;SDS011;10261;49.010;12.034;2022-10-19T06:01:24;12.43;;;6.38;;
20203;SDS011;10261;49.010;12.034;2022-10-19T06:02:28;13.63;;;7.00;;
20203;SDS011;10261;49.010;12.034;2022-10-19T06:03:31;8.50;;;6.07;;
20203;SDS011;10261;49.010;12.034;2022-10-19T06:04:34;11.00;;;6.90;;
20203;SDS011;10261;49.010;12.034;2022-10-19T06:05:37;11.70;;;6.18;;
20203;SDS011;10261;49.010;12.034;2022-10-19T06:06:39;11.73;;;7.30;;
20203;SDS011;10261;49.010;12.034;2022-10-19T06:07:43;11.70;;;5.93;;
20203;SDS011;10261;49.010;12.034;2022-10-19T06:08:46;11.65;;;6.80;;
20203;SDS011;10261;49.010;12.034;2022-10-19T06:09:49;15.65;;;6.75;;
20203;SDS011;10261;49.010;12.034;2022-10-19T06:10:56;10.88;;;6.97;;
20203;SDS011;10261;49.010;12.034;2022-10-19T06:12:06;11.15;;;6.38;;
20203;SDS011;10261;49.010;12.034;2022-10-19T06:13:09;11.40;;;6.20;;
20203;SDS011;10261;49.010;12.034;2022-10-19T06:14:13;8.23;;;6.30;;
20203;SDS011;10261;49.010;12.034;2022-10-19T06:15:16;12.25;;;6.78;;
20203;SDS011;10261;49.010;12.034;2022-10-19T06:16:19;8.60;;;6.30;;
20203;SDS011;10261;49.010;12.034;2022-10-19T06:17:23;11.13;;;6.43;;
20203;SDS011;10261;49.010;12.034;2022-10-19T06:18:26;8.73;;;6.57;;
20203;SDS011;10261;49.010;12.034;2022-10-19T06:19:28;10.63;;;6.03;;
20203;SDS011;10261;49.010;12.034;2022-10-19T06:20:32;10.00;;;6.50;;
20203;SDS011;10261;49.010;12.034;2022-10-19T06:21:34;11.50;;;6.38;;
20203;SDS011;10261;49.010;12.034;2022-10-19T06:22:42;12.25;;;5.15;;
20203;SDS011;10261;49.010;12.034;2022-10-19T06:23:44;9.93;;;5.90;;
20203;SDS011;10261;49.010;12.034;2022-10-19T06:24:50;10.77;;;6.70;;